Time;durP1;ratioP1;P1;durP2;ratioP2;P2;SDS_P1;SDS_P2;PMS_P1;PMS_P2;Temp;Humidity;BMP_temperature;BMP_pressure;BME280_temperature;BME280_humidity;BME280_pressure;Samples;Min_cycle;Max_cycle;Signal;HPM_P1;HPM_P2
2024/04/17 00:02:18;;;;;;;0.70;0.70;;;;;;;;;;5259065;27;20269;-83
2024/04/17 00:05:22;;;;;;;0.70;0.70;;;;;;;;;;5241300;27;20269;-81
2024/04/17 00:08:27;;;;;;;1.90;0.80;;;;;;;;;;5279882;27;20293;-82
2024/04/17 00:11:31;;;;;;;0.70;0.67;;;;;;;;;;5283772;27;20270;-81
2024/04/17 00:14:35;;;;;;;0.97;0.50;;;;;;;;;;5263873;27;20270;-82
2024/04/17 00:17:40;;;;;;;0.50;0.40;;;;;;;;;;5263966;27;20802;-81
2024/04/17 00:20:44;;;;;;;0.70;0.70;;;;;;;;;;5283953;27;20214;-81
2024/04/17 00:23:49;;;;;;;0.40;0.40;;;;;;;;;;5283547;27;20266;-81
2024/04/17 00:26:53;;;;;;;1.60;0.40;;;;;;;;;;5263626;27;20226;-81
2024/04/17 00:29:58;;;;;;;0.50;0.50;;;;;;;;;;5284156;27;20282;-82
2024/04/17 00:33:02;;;;;;;0.50;0.47;;;;;;;;;;5264277;27;20215;-83
2024/04/17 00:36:06;;;;;;;0.50;0.50;;;;;;;;;;5263699;27;20237;-83
2024/04/17 00:39:10;;;;;;;0.77;0.53;;;;;;;;;;5282733;27;20627;-82
2024/04/17 00:42:15;;;;;;;0.30;0.30;;;;;;;;;;5263568;27;20215;-83
2024/04/17 00:45:19;;;;;;;0.40;0.40;;;;;;;;;;5282581;27;20227;-82
2024/04/17 00:48:23;;;;;;;0.90;0.40;;;;;;;;;;5283755;27;20276;-82
2024/04/17 00:51:28;;;;;;;0.40;0.40;;;;;;;;;;5283905;27;20219;-82
2024/04/17 00:54:32;;;;;;;0.50;0.40;;;;;;;;;;5263519;27;20269;-83
2024/04/17 00:57:38;;;;;;;0.30;0.30;;;;;;;;;;5263507;27;20282;-82
2024/04/17 01:00:43;;;;;;;0.37;0.30;;;;;;;;;;5262981;27;20720;-83
2024/04/17 01:03:47;;;;;;;0.83;0.33;;;;;;;;;;5282659;27;20641;-82
2024/04/17 01:06:51;;;;;;;0.30;0.30;;;;;;;;;;5262924;27;20222;-82
2024/04/17 01:09:56;;;;;;;0.30;0.30;;;;;;;;;;5263201;27;20281;-82
2024/04/17 01:13:00;;;;;;;1.33;0.30;;;;;;;;;;5262092;27;20557;-81
2024/04/17 01:16:05;;;;;;;0.57;0.40;;;;;;;;;;5262400;27;20568;-80
2024/04/17 01:19:10;;;;;;;0.40;0.30;;;;;;;;;;5282582;27;20277;-81
2024/04/17 01:22:14;;;;;;;0.50;0.50;;;;;;;;;;5262022;27;20231;-81
2024/04/17 01:25:18;;;;;;;0.50;0.50;;;;;;;;;;5242690;27;20266;-82
2024/04/17 01:28:23;;;;;;;0.40;0.40;;;;;;;;;;5242883;27;20791;-81
2024/04/17 01:31:27;;;;;;;0.70;0.50;;;;;;;;;;5281790;27;20238;-81
2024/04/17 01:34:32;;;;;;;0.90;0.50;;;;;;;;;;5261695;27;20277;-81
2024/04/17 01:37:37;;;;;;;0.43;0.43;;;;;;;;;;5262016;27;20294;-81
2024/04/17 01:40:41;;;;;;;0.47;0.47;;;;;;;;;;5261844;27;20262;-80
2024/04/17 01:43:46;;;;;;;0.53;0.50;;;;;;;;;;5281734;27;20226;-82
2024/04/17 01:46:53;;;;;;;0.87;0.50;;;;;;;;;;5262413;27;20227;-81
2024/04/17 01:49:58;;;;;;;0.47;0.47;;;;;;;;;;5262594;27;20619;-83
2024/04/17 01:53:02;;;;;;;1.47;0.57;;;;;;;;;;5243965;27;20223;-81
2024/04/17 01:56:07;;;;;;;0.67;0.67;;;;;;;;;;5263311;27;20231;-81
2024/04/17 01:59:11;;;;;;;0.77;0.77;;;;;;;;;;5262294;27;20282;-84
2024/04/17 02:02:16;;;;;;;0.83;0.70;;;;;;;;;;5262885;27;20266;-82
2024/04/17 02:05:20;;;;;;;0.80;0.80;;;;;;;;;;5261845;27;20576;-82
2024/04/17 02:08:25;;;;;;;0.90;0.80;;;;;;;;;;5281430;27;20273;-83
2024/04/17 02:11:29;;;;;;;1.00;0.80;;;;;;;;;;5262459;27;20599;-83
2024/04/17 02:14:33;;;;;;;0.80;0.80;;;;;;;;;;5281785;27;20219;-83
2024/04/17 02:17:38;;;;;;;0.90;0.90;;;;;;;;;;5261809;27;20274;-83
2024/04/17 02:20:43;;;;;;;0.80;0.80;;;;;;;;;;5262266;27;20273;-82
2024/04/17 02:23:48;;;;;;;0.60;0.60;;;;;;;;;;5281761;27;20261;-82
2024/04/17 02:26:52;;;;;;;0.90;0.90;;;;;;;;;;5262179;27;20557;-83
2024/04/17 02:29:57;;;;;;;0.70;0.70;;;;;;;;;;5261892;27;20214;-83
2024/04/17 02:33:02;;;;;;;0.57;0.57;;;;;;;;;;5241698;27;20560;-82
2024/04/17 02:36:06;;;;;;;0.80;0.70;;;;;;;;;;5242727;27;20222;-82
2024/04/17 02:39:10;;;;;;;0.80;0.80;;;;;;;;;;5261475;27;20293;-82
2024/04/17 02:42:14;;;;;;;0.77;0.77;;;;;;;;;;5262145;27;20218;-82
2024/04/17 02:45:19;;;;;;;1.10;0.93;;;;;;;;;;5243107;27;20719;-83
2024/04/17 02:48:24;;;;;;;1.73;0.90;;;;;;;;;;5281787;27;20278;-82
2024/04/17 02:51:29;;;;;;;1.10;1.00;;;;;;;;;;5242675;27;20687;-84
2024/04/17 02:54:34;;;;;;;1.40;1.30;;;;;;;;;;5262125;27;20275;-82
2024/04/17 02:57:41;;;;;;;1.20;1.10;;;;;;;;;;5262413;27;20620;-83
2024/04/17 03:00:48;;;;;;;1.27;1.17;;;;;;;;;;5281161;27;20223;-82
2024/04/17 03:03:54;;;;;;;2.03;1.50;;;;;;;;;;5261819;27;20262;-83
2024/04/17 03:06:59;;;;;;;1.57;1.47;;;;;;;;;;5261494;27;20227;-84
2024/04/17 03:10:05;;;;;;;1.70;1.60;;;;;;;;;;5280905;27;20612;-83
2024/04/17 03:13:12;;;;;;;2.10;1.90;;;;;;;;;;5280905;27;20223;-82
2024/04/17 03:16:17;;;;;;;2.63;1.90;;;;;;;;;;5223883;27;20231;-84
2024/04/17 03:19:25;;;;;;;2.20;2.00;;;;;;;;;;5280957;27;20282;-83
2024/04/17 03:22:30;;;;;;;3.47;2.20;;;;;;;;;;5261506;27;20282;-83
2024/04/17 03:25:35;;;;;;;2.37;2.17;;;;;;;;;;5242641;27;20258;-82
2024/04/17 03:28:39;;;;;;;2.57;2.37;;;;;;;;;;5241964;27;20266;-83
2024/04/17 03:31:44;;;;;;;4.03;2.87;;;;;;;;;;5260654;27;20258;-81
2024/04/17 03:34:55;;;;;;;4.00;3.30;;;;;;;;;;5244192;27;20223;-81
2024/04/17 03:38:00;;;;;;;3.97;3.67;;;;;;;;;;5222479;27;20662;-82
2024/04/17 03:41:06;;;;;;;3.77;3.47;;;;;;;;;;5279556;27;20219;-82
2024/04/17 03:44:13;;;;;;;4.20;3.80;;;;;;;;;;5259473;27;20222;-82
2024/04/17 03:47:22;;;;;;;4.13;3.70;;;;;;;;;;5261282;27;20282;-83
2024/04/17 03:50:27;;;;;;;5.00;3.90;;;;;;;;;;5260495;27;20234;-81
2024/04/17 03:53:32;;;;;;;4.67;4.13;;;;;;;;;;5259943;27;20565;-82
2024/04/17 03:56:36;;;;;;;3.67;3.37;;;;;;;;;;5260587;27;20565;-81
2024/04/17 03:59:41;;;;;;;4.30;3.90;;;;;;;;;;5280570;27;20252;-82
2024/04/17 04:02:47;;;;;;;5.27;3.77;;;;;;;;;;5279644;27;20274;-80
2024/04/17 04:05:53;;;;;;;3.63;3.33;;;;;;;;;;5280765;27;20226;-80
2024/04/17 04:08:57;;;;;;;5.30;3.67;;;;;;;;;;5260444;27;20809;-82
2024/04/17 04:12:03;;;;;;;3.50;3.20;;;;;;;;;;5240729;27;20561;-81
2024/04/17 04:15:34;;;;;;;4.00;3.60;;;;;;;;;;5240458;27;20720;-81
2024/04/17 04:18:38;;;;;;;4.20;3.20;;;;;;;;;;5239857;27;20282;-82
2024/04/17 04:21:43;;;;;;;3.60;3.30;;;;;;;;;;5240796;27;20727;-82
2024/04/17 04:24:47;;;;;;;3.70;3.03;;;;;;;;;;5240576;27;20278;-83
2024/04/17 04:27:52;;;;;;;3.40;3.10;;;;;;;;;;5278983;27;20620;-81
2024/04/17 04:30:56;;;;;;;3.50;2.57;;;;;;;;;;5240789;27;20231;-82
2024/04/17 04:34:01;;;;;;;3.50;3.10;;;;;;;;;;5280083;27;20278;-82
2024/04/17 04:37:05;;;;;;;3.30;3.00;;;;;;;;;;5278757;27;20232;-81
2024/04/17 04:40:09;;;;;;;3.60;3.30;;;;;;;;;;5259124;27;20274;-82
2024/04/17 04:43:13;;;;;;;3.17;2.87;;;;;;;;;;5279726;27;20285;-82
2024/04/17 04:46:18;;;;;;;3.37;2.90;;;;;;;;;;5240302;27;20221;-81
2024/04/17 04:49:23;;;;;;;3.97;3.00;;;;;;;;;;5259193;27;20231;-82
2024/04/17 04:52:27;;;;;;;3.40;2.93;;;;;;;;;;5278481;27;20285;-82
2024/04/17 04:55:32;;;;;;;3.67;2.80;;;;;;;;;;5279960;27;20274;-82
2024/04/17 04:58:37;;;;;;;3.23;2.93;;;;;;;;;;5281899;27;20290;-82
2024/04/17 05:01:41;;;;;;;3.70;2.50;;;;;;;;;;5282147;27;20576;-82
2024/04/17 05:04:46;;;;;;;3.13;2.83;;;;;;;;;;5262674;27;20227;-83
2024/04/17 05:07:50;;;;;;;3.10;2.80;;;;;;;;;;5262102;27;20282;-82
2024/04/17 05:10:54;;;;;;;3.20;2.90;;;;;;;;;;5281697;27;20229;-82
2024/04/17 05:13:58;;;;;;;3.20;2.77;;;;;;;;;;5283218;27;20226;-83
2024/04/17 05:17:03;;;;;;;3.30;3.00;;;;;;;;;;5282187;27;20265;-81
2024/04/17 05:20:12;;;;;;;3.07;2.73;;;;;;;;;;5281757;27;20289;-83
2024/04/17 05:23:22;;;;;;;3.37;2.87;;;;;;;;;;5281349;27;20230;-83
2024/04/17 05:26:27;;;;;;;3.10;2.80;;;;;;;;;;5262472;27;20230;-81
2024/04/17 05:29:31;;;;;;;3.10;2.80;;;;;;;;;;5282474;27;20227;-81
2024/04/17 05:32:35;;;;;;;2.40;2.20;;;;;;;;;;5281560;27;20615;-81
2024/04/17 05:35:40;;;;;;;2.53;2.33;;;;;;;;;;5281938;27;20723;-83
2024/04/17 05:38:44;;;;;;;3.63;2.37;;;;;;;;;;5283077;27;20297;-81
2024/04/17 05:41:48;;;;;;;3.73;2.43;;;;;;;;;;5263451;27;20274;-82
2024/04/17 05:44:53;;;;;;;3.10;2.80;;;;;;;;;;5284159;27;20222;-81
2024/04/17 05:47:57;;;;;;;2.50;2.30;;;;;;;;;;5283472;27;20270;-82
2024/04/17 05:51:06;;;;;;;2.20;2.00;;;;;;;;;;5283700;27;20723;-82
2024/04/17 05:54:10;;;;;;;2.20;2.00;;;;;;;;;;5282102;27;20274;-81
2024/04/17 05:57:14;;;;;;;2.30;2.10;;;;;;;;;;5281716;27;20286;-82
2024/04/17 06:00:20;;;;;;;14.80;9.70;;;;;;;;;;5282503;27;20270;-81
2024/04/17 06:03:25;;;;;;;26.07;16.83;;;;;;;;;;5282562;27;20262;-81
2024/04/17 06:06:29;;;;;;;5.23;4.63;;;;;;;;;;5282907;27;20226;-82
2024/04/17 06:09:34;;;;;;;3.30;3.00;;;;;;;;;;5282713;27;20265;-81
2024/04/17 06:12:37;;;;;;;3.00;2.70;;;;;;;;;;5282191;27;20226;-83
2024/04/17 06:15:42;;;;;;;2.83;2.63;;;;;;;;;;5281176;27;20227;-82
2024/04/17 06:18:46;;;;;;;3.07;2.87;;;;;;;;;;5360030;22;20334;-83
2024/04/17 06:21:50;;;;;;;3.23;2.93;;;;;;;;;;5384652;26;20277;-83
2024/04/17 06:24:54;;;;;;;3.10;2.80;;;;;;;;;;5384485;26;20274;-83
2024/04/17 06:27:59;;;;;;;2.90;2.60;;;;;;;;;;5384344;26;20764;-82
2024/04/17 06:31:03;;;;;;;3.60;3.30;;;;;;;;;;5383310;26;20223;-83
2024/04/17 06:34:07;;;;;;;8.20;5.87;;;;;;;;;;5389200;26;20249;-83
2024/04/17 06:37:11;;;;;;;4.97;4.47;;;;;;;;;;5390218;26;20201;-83
2024/04/17 06:40:15;;;;;;;5.17;4.60;;;;;;;;;;5389261;26;20270;-83
2024/04/17 06:43:19;;;;;;;4.33;3.90;;;;;;;;;;5388298;26;20216;-83
2024/04/17 06:46:24;;;;;;;5.20;4.67;;;;;;;;;;5388625;26;20220;-83
2024/04/17 06:49:28;;;;;;;4.10;3.70;;;;;;;;;;5389284;26;20782;-83
2024/04/17 06:52:33;;;;;;;3.80;3.40;;;;;;;;;;5387068;26;20216;-83
2024/04/17 06:55:38;;;;;;;4.53;4.13;;;;;;;;;;5387047;26;20267;-83
2024/04/17 06:58:41;;;;;;;3.97;3.57;;;;;;;;;;5385878;26;20278;-83
2024/04/17 07:01:45;;;;;;;3.97;3.50;;;;;;;;;;5386129;26;20215;-83
2024/04/17 07:04:50;;;;;;;5.50;3.80;;;;;;;;;;5386025;26;20271;-83
2024/04/17 07:07:54;;;;;;;4.07;3.63;;;;;;;;;;5385236;26;20279;-83
2024/04/17 07:10:58;;;;;;;33.27;17.93;;;;;;;;;;5383558;26;20227;-83
2024/04/17 07:38:22;;;;;;;3.83;3.43;;;;;;;;;;5382882;26;20286;-83
2024/04/17 07:41:27;;;;;;;5.30;4.00;;;;;;;;;;5383185;26;20223;-83
2024/04/17 07:44:31;;;;;;;3.97;3.37;;;;;;;;;;5383370;26;20223;-83
2024/04/17 07:47:35;;;;;;;4.27;3.70;;;;;;;;;;5382765;26;20262;-83
2024/04/17 07:50:39;;;;;;;4.50;3.97;;;;;;;;;;5383014;26;20231;-83
2024/04/17 07:53:43;;;;;;;4.73;3.90;;;;;;;;;;5382923;26;20274;-83
2024/04/17 07:56:47;;;;;;;4.97;4.10;;;;;;;;;;5381931;26;20223;-83
2024/04/17 07:59:51;;;;;;;7.70;4.20;;;;;;;;;;5382760;26;20227;-83
2024/04/17 08:02:55;;;;;;;4.37;3.97;;;;;;;;;;5382670;26;20266;-83
2024/04/17 08:05:59;;;;;;;4.70;4.13;;;;;;;;;;5382592;26;20222;-83
2024/04/17 08:09:03;;;;;;;4.53;4.10;;;;;;;;;;5382476;26;20282;-83
2024/04/17 08:12:08;;;;;;;5.77;4.30;;;;;;;;;;5382425;26;20275;-84
2024/04/17 08:15:12;;;;;;;20.77;14.77;;;;;;;;;;5382122;26;20567;-84
2024/04/17 08:18:17;;;;;;;5.30;4.00;;;;;;;;;;5382181;26;20266;-83
2024/04/17 08:21:21;;;;;;;4.03;3.40;;;;;;;;;;5387316;26;20220;-82
2024/04/17 08:24:25;;;;;;;4.00;3.60;;;;;;;;;;5385654;26;20224;-83
2024/04/17 08:27:29;;;;;;;4.00;3.60;;;;;;;;;;5384520;26;20212;-83
2024/04/17 08:30:33;;;;;;;7.43;3.83;;;;;;;;;;5384018;26;20223;-83
2024/04/17 08:33:37;;;;;;;4.43;3.83;;;;;;;;;;5386376;26;20271;-83
2024/04/17 08:36:42;;;;;;;4.73;3.90;;;;;;;;;;5385822;26;20608;-83
2024/04/17 08:39:46;;;;;;;5.73;4.00;;;;;;;;;;5387632;26;20219;-83
2024/04/17 08:42:54;;;;;;;4.70;4.20;;;;;;;;;;5386923;26;20219;-83
2024/04/17 08:46:00;;;;;;;4.83;4.20;;;;;;;;;;5386247;26;20266;-83
2024/04/17 08:49:05;;;;;;;5.00;3.93;;;;;;;;;;5386793;26;20279;-83
2024/04/17 08:52:12;;;;;;;4.47;4.00;;;;;;;;;;5364403;26;20283;-83
2024/04/17 08:55:16;;;;;;;8.70;4.10;;;;;;;;;;5386125;26;20738;-83
2024/04/17 08:58:21;;;;;;;5.00;4.17;;;;;;;;;;5384719;26;20275;-83
2024/04/17 09:01:31;;;;;;;4.10;3.57;;;;;;;;;;5385368;26;20267;-83
2024/04/17 09:04:35;;;;;;;4.13;3.73;;;;;;;;;;5384973;26;20220;-83
2024/04/17 09:07:41;;;;;;;5.00;3.90;;;;;;;;;;5384801;26;20262;-83
2024/04/17 09:10:48;;;;;;;3.63;3.20;;;;;;;;;;5383777;26;20228;-83
2024/04/17 09:13:52;;;;;;;3.97;3.57;;;;;;;;;;5384898;26;20220;-83
2024/04/17 09:16:56;;;;;;;6.13;3.57;;;;;;;;;;5383495;26;20782;-83
2024/04/17 09:20:00;;;;;;;3.70;3.40;;;;;;;;;;5383672;26;20227;-83
2024/04/17 09:23:08;;;;;;;4.23;3.60;;;;;;;;;;5384609;26;20258;-83
2024/04/17 09:26:14;;;;;;;4.93;4.10;;;;;;;;;;5384701;26;20223;-83
2024/04/17 09:29:18;;;;;;;5.50;4.90;;;;;;;;;;5383489;26;20271;-83
2024/04/17 09:32:22;;;;;;;4.60;4.20;;;;;;;;;;5384394;26;20266;-83
2024/04/17 09:35:27;;;;;;;4.20;3.80;;;;;;;;;;5384617;26;20216;-83
2024/04/17 09:38:31;;;;;;;3.47;3.10;;;;;;;;;;5384364;26;20279;-83
2024/04/17 09:41:40;;;;;;;5.50;3.93;;;;;;;;;;5384583;26;20219;-83
2024/04/17 09:44:47;;;;;;;3.63;3.33;;;;;;;;;;5384490;26;20220;-83
2024/04/17 09:47:55;;;;;;;5.30;3.53;;;;;;;;;;5382869;26;20282;-83
2024/04/17 09:51:05;;;;;;;3.13;2.83;;;;;;;;;;5384363;26;20223;-83
2024/04/17 09:54:12;;;;;;;3.43;2.90;;;;;;;;;;5384237;26;20215;-83
2024/04/17 09:57:16;;;;;;;4.67;3.20;;;;;;;;;;5384175;26;20287;-83
2024/04/17 10:00:22;;;;;;;3.80;3.20;;;;;;;;;;5384202;26;20219;-83
2024/04/17 10:03:28;;;;;;;3.63;3.33;;;;;;;;;;5384152;26;20270;-83
2024/04/17 10:06:34;;;;;;;3.57;3.03;;;;;;;;;;5386328;26;20223;-83
2024/04/17 10:09:40;;;;;;;15.30;10.10;;;;;;;;;;5364686;26;20270;-83
2024/04/17 10:12:47;;;;;;;15.10;8.50;;;;;;;;;;5384470;26;20218;-83
2024/04/17 10:15:51;;;;;;;28.77;11.53;;;;;;;;;;5384599;26;20610;-83
2024/04/17 10:18:56;;;;;;;102.57;28.90;;;;;;;;;;5383083;26;20262;-83
2024/04/17 10:22:07;;;;;;;79.53;23.27;;;;;;;;;;5383961;26;20253;-83
2024/04/17 10:25:11;;;;;;;86.53;24.23;;;;;;;;;;5386945;26;20208;-84
2024/04/17 10:28:18;;;;;;;6.10;4.50;;;;;;;;;;5386113;26;20273;-83
2024/04/17 10:31:22;;;;;;;3.93;3.53;;;;;;;;;;5387072;26;20651;-84
2024/04/17 10:34:28;;;;;;;8.50;3.60;;;;;;;;;;5387203;26;20209;-83
2024/04/17 10:37:34;;;;;;;5.80;4.33;;;;;;;;;;5386561;26;20274;-83
2024/04/17 10:40:39;;;;;;;6.17;4.60;;;;;;;;;;5383954;26;20223;-83
2024/04/17 10:43:44;;;;;;;9.43;5.10;;;;;;;;;;5384374;26;20708;-84
2024/04/17 10:46:48;;;;;;;6.27;4.10;;;;;;;;;;5383727;26;20271;-83
2024/04/17 10:49:57;;;;;;;4.43;4.03;;;;;;;;;;5384721;26;20232;-83
2024/04/17 10:53:01;;;;;;;3.97;3.50;;;;;;;;;;5383345;26;20767;-83
2024/04/17 10:56:06;;;;;;;5.27;3.20;;;;;;;;;;5383909;26;20219;-83
2024/04/17 10:59:10;;;;;;;3.90;3.50;;;;;;;;;;5382899;26;20271;-83
2024/04/17 11:02:15;;;;;;;4.27;3.73;;;;;;;;;;5384129;26;20265;-83
2024/04/17 11:05:20;;;;;;;4.70;3.57;;;;;;;;;;5384010;26;20565;-83
2024/04/17 11:08:24;;;;;;;4.27;3.87;;;;;;;;;;5383972;26;20274;-83
2024/04/17 11:11:28;;;;;;;4.13;3.73;;;;;;;;;;5384034;26;20270;-83
2024/04/17 11:14:33;;;;;;;3.73;3.33;;;;;;;;;;5384076;26;20716;-83
2024/04/17 11:17:40;;;;;;;6.10;3.10;;;;;;;;;;5383517;26;20231;-83
2024/04/17 11:20:44;;;;;;;4.33;3.20;;;;;;;;;;5383999;26;20278;-83
2024/04/17 11:23:49;;;;;;;3.90;3.50;;;;;;;;;;5384102;26;20708;-83
2024/04/17 11:26:52;;;;;;;4.20;3.80;;;;;;;;;;5383083;26;20223;-82
2024/04/17 11:29:57;;;;;;;4.47;3.97;;;;;;;;;;5383493;26;20707;-82
2024/04/17 11:33:03;;;;;;;10.33;6.47;;;;;;;;;;5384114;26;20568;-83
2024/04/17 11:36:11;;;;;;;5.07;4.37;;;;;;;;;;5383534;26;20565;-83
2024/04/17 11:39:19;;;;;;;6.77;4.57;;;;;;;;;;5382363;26;20290;-83
2024/04/17 11:42:24;;;;;;;6.57;3.53;;;;;;;;;;5382211;26;20571;-83
2024/04/17 11:45:29;;;;;;;3.90;3.50;;;;;;;;;;5383793;26;20735;-83
2024/04/17 11:48:33;;;;;;;5.77;3.80;;;;;;;;;;5383648;26;20279;-83
2024/04/17 11:51:37;;;;;;;5.77;4.20;;;;;;;;;;5386688;26;20724;-83
2024/04/17 11:54:41;;;;;;;3.70;2.90;;;;;;;;;;5387025;26;20212;-84
2024/04/17 11:57:46;;;;;;;1.60;1.40;;;;;;;;;;5385997;26;20278;-83
2024/04/17 12:00:50;;;;;;;8.57;5.33;;;;;;;;;;5385056;26;20231;-83
2024/04/17 12:03:55;;;;;;;4.80;2.50;;;;;;;;;;5384072;26;20274;-83
2024/04/17 12:07:00;;;;;;;11.03;5.63;;;;;;;;;;5386826;26;20270;-83
2024/04/17 12:10:04;;;;;;;7.97;4.30;;;;;;;;;;5387795;26;20723;-84
2024/04/17 12:13:08;;;;;;;3.40;2.60;;;;;;;;;;5387236;26;20220;-84
2024/04/17 12:16:12;;;;;;;2.43;2.23;;;;;;;;;;5387157;26;20274;-83
2024/04/17 12:19:18;;;;;;;2.87;2.57;;;;;;;;;;5388158;21;20338;-81
2024/04/17 12:22:24;;;;;;;3.73;3.43;;;;;;;;;;5330115;26;20279;-80
2024/04/17 12:29:03;;;;;;;2.30;2.10;;;;;;;;;;5315551;26;20287;-80
2024/04/17 12:32:21;;;;;;;2.43;2.00;;;;;;;;;;5331167;26;20271;-80
2024/04/17 12:35:53;;;;;;;12.07;9.27;;;;;;;;;;5331044;26;20728;-82
2024/04/17 12:39:20;;;;;;;5.93;4.90;;;;;;;;;;5330858;26;20281;-80
2024/04/17 12:42:38;;;;;;;3.80;3.37;;;;;;;;;;5331654;26;20232;-80
2024/04/17 12:45:56;;;;;;;2.50;2.23;;;;;;;;;;5350717;26;20272;-80
2024/04/17 12:49:03;;;;;;;2.87;2.40;;;;;;;;;;5350685;26;20283;-81
2024/04/17 12:52:08;;;;;;;3.20;2.90;;;;;;;;;;5350420;26;20272;-81
2024/04/17 12:55:14;;;;;;;2.30;2.10;;;;;;;;;;5350450;26;20213;-80
2024/04/17 12:58:19;;;;;;;2.73;2.03;;;;;;;;;;5351648;26;20228;-81
2024/04/17 13:01:29;;;;;;;1.87;1.63;;;;;;;;;;5351488;26;20275;-81
2024/04/17 13:04:37;;;;;;;2.33;1.60;;;;;;;;;;5350370;26;20232;-81
2024/04/17 13:07:41;;;;;;;1.90;1.70;;;;;;;;;;5351677;26;20260;-81
2024/04/17 13:11:02;;;;;;;1.87;1.60;;;;;;;;;;5351712;26;20224;-82
2024/04/17 13:14:06;;;;;;;1.90;1.70;;;;;;;;;;5351799;26;20657;-81
2024/04/17 13:17:10;;;;;;;2.47;2.00;;;;;;;;;;5350996;26;20228;-82
2024/04/17 13:20:14;;;;;;;1.90;1.80;;;;;;;;;;5351275;26;20288;-81
2024/04/17 13:23:19;;;;;;;1.77;1.67;;;;;;;;;;5350841;26;20275;-83
2024/04/17 13:26:25;;;;;;;2.40;2.20;;;;;;;;;;5350899;26;20227;-81
2024/04/17 13:29:32;;;;;;;2.43;2.23;;;;;;;;;;5310442;26;20280;-81
2024/04/17 13:32:36;;;;;;;3.00;2.60;;;;;;;;;;5329356;26;20721;-82
2024/04/17 13:35:41;;;;;;;2.33;2.07;;;;;;;;;;5349670;26;20228;-81
2024/04/17 13:38:45;;;;;;;1.70;1.60;;;;;;;;;;5350586;26;20288;-82
2024/04/17 13:41:51;;;;;;;1.83;1.73;;;;;;;;;;5349891;26;20216;-82
2024/04/17 13:44:56;;;;;;;2.77;2.17;;;;;;;;;;5309685;26;20224;-81
2024/04/17 13:48:00;;;;;;;2.33;2.00;;;;;;;;;;5349822;26;20272;-81
2024/04/17 13:51:07;;;;;;;2.33;2.13;;;;;;;;;;5349931;26;20224;-81
2024/04/17 13:54:30;;;;;;;3.17;2.40;;;;;;;;;;5350692;26;20232;-81
2024/04/17 13:57:35;;;;;;;2.93;2.60;;;;;;;;;;5329535;26;20220;-81
2024/04/17 14:00:39;;;;;;;3.33;2.30;;;;;;;;;;5329686;26;20279;-81
2024/04/17 14:03:44;;;;;;;4.00;3.00;;;;;;;;;;5349301;26;20728;-81
2024/04/17 14:06:49;;;;;;;2.20;2.00;;;;;;;;;;5290860;26;20255;-81
2024/04/17 14:09:53;;;;;;;2.13;1.90;;;;;;;;;;5349333;26;20288;-80
2024/04/17 14:12:59;;;;;;;2.07;1.87;;;;;;;;;;5350765;26;20228;-80
2024/04/17 14:16:08;;;;;;;2.60;2.30;;;;;;;;;;5310141;26;20756;-80
2024/04/17 14:19:12;;;;;;;3.70;3.13;;;;;;;;;;5350286;26;20279;-80
2024/04/17 14:22:20;;;;;;;5.97;2.30;;;;;;;;;;5350335;26;20271;-79
2024/04/17 14:25:26;;;;;;;4.53;2.87;;;;;;;;;;5350390;26;20233;-80
2024/04/17 14:28:31;;;;;;;2.90;2.60;;;;;;;;;;5308334;26;20284;-81
2024/04/17 14:31:37;;;;;;;2.50;2.20;;;;;;;;;;5309009;26;20275;-80
2024/04/17 14:34:47;;;;;;;2.57;2.10;;;;;;;;;;5329162;26;20224;-81
2024/04/17 14:37:52;;;;;;;2.13;1.83;;;;;;;;;;5328622;26;20613;-81
2024/04/17 14:40:57;;;;;;;2.27;2.07;;;;;;;;;;5329980;26;20221;-80
2024/04/17 14:44:01;;;;;;;4.03;2.53;;;;;;;;;;5350403;26;20224;-81
2024/04/17 14:47:06;;;;;;;2.43;1.70;;;;;;;;;;5350644;26;20279;-80
2024/04/17 14:50:10;;;;;;;1.80;1.60;;;;;;;;;;5349344;26;20283;-82
2024/04/17 14:53:14;;;;;;;1.80;1.43;;;;;;;;;;5349624;26;20822;-80
2024/04/17 14:56:23;;;;;;;1.57;1.47;;;;;;;;;;5349756;26;20570;-81
2024/04/17 14:59:30;;;;;;;1.63;1.50;;;;;;;;;;5349595;26;20268;-80
2024/04/17 15:02:34;;;;;;;3.37;2.23;;;;;;;;;;5309309;26;20272;-80
2024/04/17 15:05:41;;;;;;;3.33;2.93;;;;;;;;;;5349841;26;20233;-81
2024/04/17 15:08:49;;;;;;;2.07;1.50;;;;;;;;;;5348577;26;20288;-80
2024/04/17 15:11:58;;;;;;;1.57;1.40;;;;;;;;;;5349880;26;20733;-81
2024/04/17 15:15:01;;;;;;;1.63;1.37;;;;;;;;;;5350197;26;20715;-80
2024/04/17 15:18:34;;;;;;;5.20;3.37;;;;;;;;;;5349321;26;20283;-80
2024/04/17 15:21:41;;;;;;;1.80;1.70;;;;;;;;;;5350047;26;20225;-80
2024/04/17 15:24:47;;;;;;;1.80;1.70;;;;;;;;;;5350290;26;20225;-81
2024/04/17 15:27:51;;;;;;;2.47;2.13;;;;;;;;;;5350705;26;20724;-81
2024/04/17 15:31:06;;;;;;;2.27;1.90;;;;;;;;;;5350218;26;20224;-82
2024/04/17 15:34:10;;;;;;;3.00;2.43;;;;;;;;;;5350257;26;20570;-81
2024/04/17 15:37:15;;;;;;;2.60;2.40;;;;;;;;;;5349940;26;20270;-80
2024/04/17 15:40:19;;;;;;;2.70;2.10;;;;;;;;;;5350161;26;20276;-81
2024/04/17 15:43:25;;;;;;;9.23;5.57;;;;;;;;;;5348853;26;20224;-81
2024/04/17 15:46:29;;;;;;;33.53;20.20;;;;;;;;;;5349695;26;20224;-80
2024/04/17 15:49:45;;;;;;;8.77;6.13;;;;;;;;;;5349450;26;20287;-80
2024/04/17 15:53:07;;;;;;;3.83;3.23;;;;;;;;;;5347833;26;20264;-79
2024/04/17 15:56:23;;;;;;;3.23;2.67;;;;;;;;;;5347928;26;20217;-80
2024/04/17 15:59:58;;;;;;;4.40;4.00;;;;;;;;;;5348639;26;20284;-80
2024/04/17 16:03:16;;;;;;;6.80;5.93;;;;;;;;;;5347838;26;20225;-81
2024/04/17 16:06:21;;;;;;;6.87;3.10;;;;;;;;;;5347635;26;20224;-79
2024/04/17 16:09:25;;;;;;;7.63;4.07;;;;;;;;;;5307682;26;20276;-80
2024/04/17 16:12:32;;;;;;;8.57;4.80;;;;;;;;;;5327620;26;20221;-80
2024/04/17 16:15:38;;;;;;;5.50;3.27;;;;;;;;;;5346365;26;20279;-80
2024/04/17 16:18:42;;;;;;;4.00;2.93;;;;;;;;;;5346706;26;20271;-80
2024/04/17 16:21:47;;;;;;;3.73;2.70;;;;;;;;;;5346929;26;20288;-81
2024/04/17 16:24:52;;;;;;;2.40;2.20;;;;;;;;;;5308907;26;20225;-82
2024/04/17 16:28:00;;;;;;;3.37;2.80;;;;;;;;;;5328977;26;20724;-82
2024/04/17 16:31:14;;;;;;;3.37;2.40;;;;;;;;;;5290967;26;20225;-82
2024/04/17 16:34:21;;;;;;;3.37;2.30;;;;;;;;;;5349513;26;20217;-81
2024/04/17 16:37:26;;;;;;;3.53;2.27;;;;;;;;;;5347449;26;20287;-81
2024/04/17 16:40:36;;;;;;;2.63;2.40;;;;;;;;;;5307767;26;20291;-81
2024/04/17 16:43:56;;;;;;;3.47;2.47;;;;;;;;;;5313915;26;20229;-81
2024/04/17 16:47:00;;;;;;;2.67;2.30;;;;;;;;;;5348884;26;20228;-81
2024/04/17 16:50:05;;;;;;;3.10;2.37;;;;;;;;;;5328015;26;20287;-81
2024/04/17 16:53:11;;;;;;;2.20;2.00;;;;;;;;;;5312475;26;20252;-85
2024/04/17 16:56:16;;;;;;;3.03;2.30;;;;;;;;;;5354130;26;20232;-82
2024/04/17 16:59:20;;;;;;;3.70;2.00;;;;;;;;;;5351317;26;20276;-81
2024/04/17 17:02:25;;;;;;;2.37;1.87;;;;;;;;;;5312907;26;20609;-81
2024/04/17 17:05:29;;;;;;;1.93;1.80;;;;;;;;;;5352173;26;20228;-82
2024/04/17 17:08:34;;;;;;;2.73;2.30;;;;;;;;;;5352736;26;20280;-81
2024/04/17 17:11:38;;;;;;;3.00;2.03;;;;;;;;;;5331877;26;20213;-81
2024/04/17 17:14:43;;;;;;;3.43;1.90;;;;;;;;;;5352721;26;20722;-81
2024/04/17 17:17:47;;;;;;;3.20;2.20;;;;;;;;;;5351433;26;20272;-81
2024/04/17 17:20:56;;;;;;;2.33;2.07;;;;;;;;;;5352795;26;20224;-82
2024/04/17 17:24:06;;;;;;;2.67;2.37;;;;;;;;;;5351542;26;20232;-80
2024/04/17 17:27:10;;;;;;;3.20;2.07;;;;;;;;;;5352139;26;20694;-81
2024/04/17 17:30:14;;;;;;;3.77;2.03;;;;;;;;;;5352235;26;20271;-81
2024/04/17 17:33:24;;;;;;;2.63;2.10;;;;;;;;;;5351823;26;20617;-81
2024/04/17 17:36:35;;;;;;;2.73;2.40;;;;;;;;;;5332468;26;20209;-82
2024/04/17 17:39:47;;;;;;;2.83;2.23;;;;;;;;;;5315984;26;20269;-82
2024/04/17 17:42:53;;;;;;;2.67;2.13;;;;;;;;;;5331832;26;20228;-82
2024/04/17 17:46:13;;;;;;;2.30;2.10;;;;;;;;;;5312076;26;20221;-82
2024/04/17 17:49:20;;;;;;;3.37;2.40;;;;;;;;;;5331918;26;20276;-82
2024/04/17 17:52:26;;;;;;;5.67;2.70;;;;;;;;;;5351853;26;20225;-82
2024/04/17 17:55:31;;;;;;;3.03;2.00;;;;;;;;;;5309842;26;20228;-81
2024/04/17 17:58:39;;;;;;;6.50;3.47;;;;;;;;;;5310118;26;20632;-80
2024/04/17 18:01:43;;;;;;;3.07;2.50;;;;;;;;;;5349704;26;20220;-81
2024/04/17 18:04:48;;;;;;;4.17;2.20;;;;;;;;;;5349027;26;20224;-80
2024/04/17 18:07:58;;;;;;;3.17;2.50;;;;;;;;;;5330005;26;20228;-80
2024/04/17 18:11:17;;;;;;;2.80;2.03;;;;;;;;;;5350518;26;20221;-81
2024/04/17 18:14:23;;;;;;;3.80;2.20;;;;;;;;;;5349265;26;20229;-81
2024/04/17 18:17:33;;;;;;;2.00;1.80;;;;;;;;;;5329330;26;20272;-79
2024/04/17 18:20:43;;;;;;;2.30;2.07;;;;;;;;;;5349701;26;20721;-81
2024/04/17 18:23:56;;;;;;;2.37;1.90;;;;;;;;;;5329917;26;20220;-82
2024/04/17 18:27:01;;;;;;;4.13;2.00;;;;;;;;;;5349276;26;20224;-80
2024/04/17 18:30:07;;;;;;;3.97;1.70;;;;;;;;;;5309733;26;20283;-81
2024/04/17 18:33:11;;;;;;;2.93;1.83;;;;;;;;;;5350252;26;20232;-80
2024/04/17 18:36:17;;;;;;;3.53;1.90;;;;;;;;;;5349283;26;20732;-81
2024/04/17 18:39:22;;;;;;;2.13;1.80;;;;;;;;;;5309725;26;20617;-80
2024/04/17 18:42:30;;;;;;;2.47;2.17;;;;;;;;;;5350321;26;20221;-80
2024/04/17 18:45:35;;;;;;;2.80;2.17;;;;;;;;;;5328720;26;20217;-80
2024/04/17 18:48:42;;;;;;;4.77;2.40;;;;;;;;;;5329301;26;20279;-81
2024/04/17 18:51:49;;;;;;;3.63;2.10;;;;;;;;;;5348960;26;20221;-80
2024/04/17 18:54:54;;;;;;;4.00;2.33;;;;;;;;;;5348474;26;20225;-81
2024/04/17 18:57:59;;;;;;;3.13;2.20;;;;;;;;;;5349702;26;20784;-81
2024/04/17 19:01:05;;;;;;;3.17;2.30;;;;;;;;;;5348854;26;20760;-81
2024/04/17 19:04:09;;;;;;;3.67;2.17;;;;;;;;;;5349757;26;20224;-81